Aeroporto :
LOGIN :

Iscrizione | Disclaimer

   EN    FR    IT 

 










Sommario :    VFR   VFR Marginale   IFR   IFR Intensivo   IFR Molto Intensivo
Visibilità : 
Base nubi : 
>= 8 km
>= 3000ft
5 / 8 km
1000 / 3000 ft
1500m / 5 km
500 / 1000 ft
800 / 1500m
200 / 500 ft
< 800m
< 200 ft
Simboli :   Temporali  Nebbia  Neve Forte  Precipitazioni Forti  Vento > 20 kt
SIGMETs :   Varie  Temporali  Ghiacco  Turbolenza  Onda orograficha  Ceneri Vulcaniche







- Altitudine del aeroporto : 622 ft
- Codice IATA : BRS
- Carte del aeroporto


EGGD - Bristol Int.

ULTIMO METAR :
  • 250120Z AUTO 28013KT 9999 SCT035 06/04 Q1030

METARs OBSOLETI :
  • 250050Z AUTO 28015KT 9999 SCT034 06/04 Q1030
  • 250020Z AUTO 27013KT 9999 BKN035 06/04 Q1030
  • 242350Z AUTO 27015KT 9999 FEW038 06/04 Q1030
  • 242320Z AUTO 27014KT 9999 NCD 06/04 Q1030
  • 242250Z AUTO 27015KT 9999 FEW038 06/04 Q1030

TAF TAF EGGD
Valido dal 25 a 00 ore il 26 a 00 ore UTC


242302Z 2500/2524 29012KT 9999 SCT030
PROB30
TEMPO 2500/2506 8000 -SHRA BKN014
BECMG 2506/2509 36008KT
ATIS : +44 1275 473 666
Nessun NOTAM noto per questo aeroporto.
1 SIGMET conosciuto per la FIR London (EGTT) :
 
Turbolenza severa
EGTT SIGMET 01 VALID 250200/250600 EGRR
EGTT LONDON FIR SEV TURB FCST WI N5500 E00500 - N5315 E00330 - N5500 W00040 - N5500 E00500 SFC/FL060 STNR NC=



MetMap, La meteo Aeronautica in un colpo d'occhio ! - Copyright ORBIFLY Dicembre 2007 - Disclaimer

ORBIFLY MET'MAP TEAM :

Programmazione e sviluppo : Alexandra Zaïnal
Concezione e sviluppo : Baudouin d'Aumeries
Co-Programmazione e sviluppo : Marc-Olivier Méhu
Supporto tecnico e logistico : Manuel Goepfert
Aiuto per la traduzione : Arnaldo La Scala

Contatto : metmap@orbifly.com




FONTI E CREDITI :

   NOAA